createdAt,value
2017-09-11T00:00:07.622Z,21
2017-09-11T00:02:05.295Z,20.9
2017-09-11T00:04:05.084Z,20.9
2017-09-11T00:06:07.311Z,21
2017-09-11T00:08:05.088Z,20.9
2017-09-11T00:10:07.372Z,20.9
2017-09-11T00:12:05.735Z,21
2017-09-11T00:14:05.460Z,21
2017-09-11T00:16:05.180Z,20.9
2017-09-11T00:18:07.615Z,20.9
2017-09-11T00:20:05.302Z,20.9
2017-09-11T00:22:05.039Z,21
2017-09-11T00:24:04.914Z,21
2017-09-11T00:26:05.130Z,20.9
2017-09-11T00:28:04.864Z,20.9
2017-09-11T00:30:05.829Z,21
2017-09-11T00:32:05.513Z,20.9
2017-09-11T00:34:07.794Z,21
2017-09-11T00:36:05.614Z,20.9
2017-09-11T00:38:05.308Z,20.9
2017-09-11T00:40:05.043Z,20.9
2017-09-11T00:42:04.864Z,20.9
2017-09-11T00:44:05.613Z,21
2017-09-11T00:46:05.272Z,20.9
2017-09-11T00:48:05.130Z,20.9
2017-09-11T00:50:04.812Z,20.9
2017-09-11T00:52:05.529Z,20.9
2017-09-11T00:54:05.321Z,20.9
2017-09-11T00:56:05.001Z,20.9
2017-09-11T00:58:04.666Z,20.9
2017-09-11T01:00:10.558Z,20.9
2017-09-11T01:02:04.798Z,20.9
2017-09-11T01:04:05.552Z,20.9
2017-09-11T01:06:05.274Z,20.9
2017-09-11T01:08:05.017Z,20.9
2017-09-11T01:10:09.796Z,20.9
2017-09-11T01:12:05.500Z,20.9
2017-09-11T01:14:07.695Z,20.9
2017-09-11T01:16:05.454Z,20.9
2017-09-11T01:18:05.037Z,20.9
2017-09-11T01:20:05.382Z,20.9
2017-09-11T01:22:05.083Z,20.9
2017-09-11T01:24:07.536Z,20.9
2017-09-11T01:26:05.189Z,20.9
2017-09-11T01:28:05.413Z,20.9
2017-09-11T01:30:07.394Z,20.9
2017-09-11T01:32:07.638Z,20.9
2017-09-11T01:34:07.925Z,20.9
2017-09-11T01:36:04.780Z,20.9
2017-09-11T01:38:10.567Z,20.9
2017-09-11T01:40:07.856Z,20.9
2017-09-11T01:42:05.238Z,20.9
2017-09-11T01:44:07.421Z,20.9
2017-09-11T01:46:07.676Z,20.9
2017-09-11T01:48:05.555Z,20.9
2017-09-11T01:50:05.239Z,20.9
2017-09-11T01:52:04.938Z,20.9
2017-09-11T01:54:09.669Z,20.9
2017-09-11T01:56:04.919Z,20.8
2017-09-11T01:58:04.606Z,20.9
2017-09-11T02:00:05.341Z,20.9
2017-09-11T02:02:05.563Z,20.9
2017-09-11T02:04:05.255Z,20.9
2017-09-11T02:06:04.988Z,20.8
2017-09-11T02:08:04.714Z,20.9
2017-09-11T02:10:04.938Z,20.9
2017-09-11T02:12:04.763Z,20.9
2017-09-11T02:14:05.458Z,20.8
2017-09-11T02:16:05.195Z,20.9
2017-09-11T02:18:05.347Z,20.8
2017-09-11T02:20:05.227Z,20.9
2017-09-11T02:22:05.040Z,20.8
2017-09-11T02:24:04.839Z,20.9
2017-09-11T02:26:05.532Z,20.8
2017-09-11T02:28:04.800Z,20.8
2017-09-11T02:30:08.124Z,20.8
2017-09-11T02:32:04.833Z,20.8
2017-09-11T02:34:08.083Z,20.8
2017-09-11T02:36:05.361Z,20.8
2017-09-11T02:38:05.594Z,20.8
2017-09-11T02:40:04.786Z,20.8
2017-09-11T02:42:05.610Z,20.8
2017-09-11T02:44:05.478Z,20.8
2017-09-11T02:46:05.153Z,20.8
2017-09-11T02:48:07.438Z,20.8
2017-09-11T02:50:05.147Z,20.8
2017-09-11T02:52:07.538Z,20.8
2017-09-11T02:54:05.385Z,20.8
2017-09-11T02:56:05.124Z,20.8
2017-09-11T02:58:04.812Z,20.8
2017-09-11T03:00:05.471Z,20.8
2017-09-11T03:02:05.201Z,20.8
2017-09-11T03:04:04.945Z,20.8
2017-09-11T03:06:09.697Z,20.8
2017-09-11T03:08:05.662Z,20.8
2017-09-11T03:10:05.423Z,20.8
2017-09-11T03:12:05.251Z,20.8
2017-09-11T03:14:12.630Z,20.8
2017-09-11T03:16:05.318Z,20.8
2017-09-11T03:18:07.451Z,20.8
2017-09-11T03:20:07.755Z,20.8
2017-09-11T03:22:07.506Z,20.8
2017-09-11T03:24:05.424Z,20.8
2017-09-11T03:26:05.129Z,20.8
2017-09-11T03:28:04.794Z,20.8
2017-09-11T03:30:05.665Z,20.8
2017-09-11T03:32:05.376Z,20.8
2017-09-11T03:34:05.136Z,20.8
2017-09-11T03:36:07.509Z,20.8
2017-09-11T03:38:05.222Z,20.8
2017-09-11T03:40:04.978Z,20.8
2017-09-11T03:42:05.294Z,20.8
2017-09-11T03:44:08.089Z,20.8
2017-09-11T03:46:05.435Z,20.8
2017-09-11T03:48:05.188Z,20.8
2017-09-11T03:50:05.451Z,20.8
2017-09-11T03:52:04.664Z,20.8
2017-09-11T03:54:05.573Z,20.8
2017-09-11T03:56:07.917Z,20.8
2017-09-11T03:58:10.704Z,20.7
2017-09-11T04:00:05.579Z,20.8
2017-09-11T04:02:05.317Z,20.7
2017-09-11T04:04:07.564Z,20.7
2017-09-11T04:06:05.626Z,20.7
2017-09-11T04:08:05.316Z,20.7
2017-09-11T04:10:05.037Z,20.7
2017-09-11T04:12:10.414Z,20.7
2017-09-11T04:14:07.624Z,20.8
2017-09-11T04:16:09.946Z,20.7
2017-09-11T04:18:07.426Z,20.7
2017-09-11T04:20:05.134Z,20.7
2017-09-11T04:22:05.324Z,20.7
2017-09-11T04:24:05.117Z,20.7
2017-09-11T04:26:04.823Z,20.7
2017-09-11T04:28:05.661Z,20.7
2017-09-11T04:30:04.915Z,20.7
2017-09-11T04:32:05.602Z,20.7
2017-09-11T04:34:08.149Z,20.7
2017-09-11T04:36:04.902Z,20.7
2017-09-11T04:38:08.132Z,20.7
2017-09-11T04:40:04.818Z,20.7
2017-09-11T04:42:05.415Z,20.7
2017-09-11T04:44:05.144Z,20.7
2017-09-11T04:46:04.905Z,20.7
2017-09-11T04:48:05.362Z,20.7
2017-09-11T04:50:05.065Z,20.7
2017-09-11T04:52:04.783Z,20.7
2017-09-11T04:54:05.673Z,20.7
2017-09-11T04:56:07.530Z,20.7
2017-09-11T04:58:05.230Z,20.7
2017-09-11T05:00:07.470Z,20.6
2017-09-11T05:02:05.183Z,20.7
2017-09-11T05:04:07.442Z,20.7
2017-09-11T05:06:07.851Z,20.7
2017-09-11T05:08:05.588Z,20.7
2017-09-11T05:10:05.303Z,20.7
2017-09-11T05:12:05.160Z,20.7
2017-09-11T05:14:04.884Z,20.7
2017-09-11T05:16:05.620Z,20.7
2017-09-11T05:18:05.781Z,20.7
2017-09-11T05:20:05.527Z,20.7
2017-09-11T05:22:05.215Z,20.7
2017-09-11T05:24:05.076Z,20.7
2017-09-11T05:26:04.774Z,20.7
2017-09-11T05:28:05.571Z,20.7
2017-09-11T05:30:05.364Z,20.7
2017-09-11T05:32:07.790Z,20.7
2017-09-11T05:34:05.507Z,20.7
2017-09-11T05:36:04.910Z,20.7
2017-09-11T05:38:09.712Z,20.7
2017-09-11T05:40:07.589Z,20.7
2017-09-11T05:42:06.533Z,20.7
2017-09-11T05:44:08.096Z,20.7
2017-09-11T05:46:04.791Z,20.6
2017-09-11T05:48:05.520Z,20.7
2017-09-11T05:50:05.215Z,20.7
2017-09-11T05:52:04.884Z,20.7
2017-09-11T05:54:08.259Z,20.7
2017-09-11T05:56:04.952Z,20.6
2017-09-11T05:58:15.340Z,20.7
2017-09-11T06:00:07.690Z,20.7
2017-09-11T06:02:05.362Z,20.7
2017-09-11T06:04:05.144Z,20.7
2017-09-11T06:06:07.391Z,20.7
2017-09-11T06:08:04.590Z,20.7
2017-09-11T06:10:05.320Z,20.7
2017-09-11T06:12:05.254Z,20.7
2017-09-11T06:14:05.505Z,20.8
2017-09-11T06:16:07.785Z,20.8
2017-09-11T06:18:04.728Z,20.8
2017-09-11T06:20:05.456Z,20.8
2017-09-11T06:22:10.285Z,20.9
2017-09-11T06:24:05.652Z,20.9
2017-09-11T06:26:05.385Z,20.9
2017-09-11T06:28:12.669Z,20.9
2017-09-11T06:30:05.396Z,20.9
2017-09-11T06:32:05.145Z,20.9
2017-09-11T06:34:04.875Z,20.9
2017-09-11T06:36:05.869Z,21
2017-09-11T06:38:08.096Z,21
2017-09-11T06:40:04.915Z,21
2017-09-11T06:42:05.386Z,21
2017-09-11T06:44:04.708Z,21
2017-09-11T06:46:05.391Z,21
2017-09-11T06:48:04.727Z,21
2017-09-11T06:50:05.509Z,21
2017-09-11T06:52:05.357Z,21
2017-09-11T06:54:05.214Z,21
2017-09-11T06:56:04.909Z,21
2017-09-11T06:58:05.123Z,21
2017-09-11T07:00:07.381Z,21
2017-09-11T07:02:07.587Z,21
2017-09-11T07:04:05.232Z,21
2017-09-11T07:06:07.597Z,21
2017-09-11T07:08:05.452Z,20.9
2017-09-11T07:10:05.172Z,20.9
2017-09-11T07:12:05.553Z,20.9
2017-09-11T07:14:05.232Z,21
2017-09-11T07:16:04.920Z,21
2017-09-11T07:18:04.920Z,21
2017-09-11T07:20:04.643Z,21
2017-09-11T07:22:07.408Z,20.9
2017-09-11T07:24:05.109Z,20.9
2017-09-11T07:26:04.814Z,20.9
2017-09-11T07:28:05.600Z,20.9
2017-09-11T07:30:05.657Z,20.9
2017-09-11T07:32:07.895Z,21
2017-09-11T07:34:13.214Z,21
2017-09-11T07:36:05.069Z,21
2017-09-11T07:38:12.409Z,21
2017-09-11T07:40:05.228Z,21
2017-09-11T07:42:04.983Z,21.1
2017-09-11T07:44:07.190Z,21.2
2017-09-11T07:46:04.852Z,21.1
2017-09-11T07:48:13.169Z,21.2
2017-09-11T07:50:04.875Z,21.2
2017-09-11T07:52:05.631Z,21.2
2017-09-11T07:54:05.484Z,21.2
2017-09-11T07:56:05.367Z,21.2
2017-09-11T07:58:05.149Z,21.2
2017-09-11T08:00:05.021Z,21.2
2017-09-11T08:02:04.803Z,21.1
2017-09-11T08:04:10.583Z,21.2
2017-09-11T08:06:05.620Z,21.2
2017-09-11T08:08:05.289Z,21.2
2017-09-11T08:10:07.515Z,21.2
2017-09-11T08:12:05.328Z,21.2
2017-09-11T08:14:10.104Z,21.3
2017-09-11T08:16:04.878Z,21.3
2017-09-11T08:18:04.830Z,21.3
2017-09-11T08:20:05.506Z,21.4
2017-09-11T08:22:05.343Z,21.4
2017-09-11T08:24:05.179Z,21.4
2017-09-11T08:26:07.483Z,21.5
2017-09-11T08:28:04.801Z,21.5
2017-09-11T08:30:15.782Z,21.5
2017-09-11T08:32:08.068Z,21.5
2017-09-11T08:34:04.730Z,21.5
2017-09-11T08:36:10.806Z,21.5
2017-09-11T08:38:05.558Z,21.5
2017-09-11T08:40:05.265Z,21.5
2017-09-11T08:42:05.541Z,21.5
2017-09-11T08:44:08.154Z,21.5
2017-09-11T08:46:07.991Z,21.5
2017-09-11T08:48:05.295Z,21.5
2017-09-11T08:50:08.013Z,21.5
2017-09-11T08:52:09.960Z,21.6
2017-09-11T08:54:04.777Z,21.6
2017-09-11T08:56:08.035Z,21.5
2017-09-11T08:58:04.882Z,21.6
2017-09-11T09:00:04.774Z,21.6
2017-09-11T09:02:05.485Z,21.6
2017-09-11T09:04:05.185Z,21.6
2017-09-11T09:06:05.043Z,21.6
2017-09-11T09:08:05.263Z,21.6
2017-09-11T09:10:07.332Z,21.5
2017-09-11T09:12:05.853Z,21.5
2017-09-11T09:14:05.589Z,21.5
2017-09-11T09:16:05.576Z,21.4
2017-09-11T09:18:08.053Z,21.4
2017-09-11T09:20:04.790Z,21.4
2017-09-11T09:22:05.491Z,21.4
2017-09-11T09:24:07.723Z,21.4
2017-09-11T09:26:05.414Z,21.5
2017-09-11T09:28:04.645Z,21.5
2017-09-11T09:30:08.297Z,21.5
2017-09-11T09:32:10.059Z,21.4
2017-09-11T09:34:07.854Z,21.5
2017-09-11T09:36:05.690Z,21.5
2017-09-11T09:38:07.917Z,21.4
2017-09-11T09:40:04.658Z,21.4
2017-09-11T09:42:05.064Z,21.5
2017-09-11T09:44:04.800Z,21.4
2017-09-11T09:46:05.511Z,21.4
2017-09-11T09:48:05.355Z,21.5
2017-09-11T09:50:04.644Z,21.4
2017-09-11T09:52:04.927Z,21.4
2017-09-11T09:54:04.807Z,21.5
2017-09-11T09:56:05.495Z,21.6
2017-09-11T09:58:04.707Z,21.6
2017-09-11T10:00:05.481Z,21.6
2017-09-11T10:02:05.177Z,21.6
2017-09-11T10:04:07.538Z,21.6
2017-09-11T10:06:07.784Z,21.5
2017-09-11T10:08:05.478Z,21.5
2017-09-11T10:10:04.810Z,21.5
2017-09-11T10:12:10.805Z,21.4
2017-09-11T10:14:05.530Z,21.4
2017-09-11T10:16:05.204Z,21.4
2017-09-11T10:18:10.187Z,21.4
2017-09-11T10:20:04.933Z,21.4
2017-09-11T10:22:04.713Z,21.4
2017-09-11T10:24:08.006Z,21.4
2017-09-11T10:26:04.755Z,21.4
2017-09-11T10:28:05.458Z,21.4
2017-09-11T10:30:05.313Z,21.4
2017-09-11T10:32:05.266Z,21.4
2017-09-11T10:34:04.975Z,21.4
2017-09-11T10:36:04.740Z,21.3
2017-09-11T10:38:12.993Z,21.4
2017-09-11T10:40:07.195Z,21.4
2017-09-11T10:42:05.018Z,21.3
2017-09-11T10:44:05.439Z,21.3
2017-09-11T10:46:07.655Z,21.3
2017-09-11T10:48:05.351Z,21.3
2017-09-11T10:50:05.616Z,21.3
2017-09-11T10:52:05.401Z,21.3
2017-09-11T10:54:12.792Z,21.3
2017-09-11T10:56:05.479Z,21.3
2017-09-11T10:58:05.164Z,21.3
2017-09-11T11:00:13.397Z,21.3
2017-09-11T11:02:04.805Z,21.3
2017-09-11T11:04:05.536Z,21.3
2017-09-11T11:06:08.118Z,21.3
2017-09-11T11:08:05.185Z,21.3
2017-09-11T11:10:04.903Z,21.3
2017-09-11T11:12:05.664Z,21.3
2017-09-11T11:14:07.889Z,21.3
2017-09-11T11:16:05.594Z,21.2
2017-09-11T11:18:05.530Z,21.2
2017-09-11T11:20:05.244Z,21.3
2017-09-11T11:22:04.934Z,21.2
2017-09-11T11:24:04.812Z,21.3
2017-09-11T11:26:05.514Z,21.3
2017-09-11T11:28:04.739Z,21.2
2017-09-11T11:30:05.673Z,21.3
2017-09-11T11:32:05.410Z,21.2
2017-09-11T11:34:07.616Z,21.2
2017-09-11T11:36:05.730Z,21.2
2017-09-11T11:38:07.479Z,21.2
2017-09-11T11:40:05.324Z,21.2
2017-09-11T11:42:05.106Z,21.2
2017-09-11T11:44:12.901Z,21.2
2017-09-11T11:46:05.167Z,21.2
2017-09-11T11:48:05.431Z,21.2
2017-09-11T11:50:05.156Z,21.2
2017-09-11T11:52:04.832Z,21.2
2017-09-11T11:54:08.255Z,21.2
2017-09-11T11:56:10.314Z,21.2
2017-09-11T11:58:04.993Z,21.2
2017-09-11T12:00:04.880Z,21.2
2017-09-11T12:02:05.549Z,21.2
2017-09-11T12:04:05.238Z,21.2
2017-09-11T12:06:04.780Z,21.2
2017-09-11T12:08:04.732Z,21.2
2017-09-11T12:10:04.968Z,21.2
2017-09-11T12:12:05.612Z,21.2
2017-09-11T12:14:10.811Z,21.2
2017-09-11T12:16:05.060Z,21.2
2017-09-11T12:18:05.592Z,21.2
2017-09-11T12:20:05.301Z,21.2
2017-09-11T12:22:05.055Z,21.2
2017-09-11T12:24:07.377Z,21.2
2017-09-11T12:26:05.093Z,21.2
2017-09-11T12:28:04.985Z,21.2
2017-09-11T12:30:04.898Z,21.2
2017-09-11T12:32:08.110Z,21.2
2017-09-11T12:34:05.102Z,21.2
2017-09-11T12:36:05.012Z,21.2
2017-09-11T12:38:04.848Z,21.2
2017-09-11T12:40:04.629Z,21.2
2017-09-11T12:42:05.388Z,21.2
2017-09-11T12:44:04.811Z,21.2
2017-09-11T12:46:08.100Z,21.2
2017-09-11T12:48:05.004Z,21.2
2017-09-11T12:50:09.874Z,21.2
2017-09-11T12:52:05.630Z,21.2
2017-09-11T12:54:10.366Z,21.2
2017-09-11T12:56:05.372Z,21.2
2017-09-11T12:58:07.666Z,21.2
2017-09-11T13:00:05.544Z,21.2
2017-09-11T13:02:05.277Z,21.2
2017-09-11T13:04:04.972Z,21.2
2017-09-11T13:06:07.366Z,21.2
2017-09-11T13:08:05.118Z,21.2
2017-09-11T13:10:04.824Z,21.2
2017-09-11T13:12:08.267Z,21.2
2017-09-11T13:14:07.557Z,21.2
2017-09-11T13:16:05.287Z,21.2
2017-09-11T13:18:05.369Z,21.2
2017-09-11T13:20:05.334Z,21.2
2017-09-11T13:22:05.089Z,21.2
2017-09-11T13:24:04.906Z,21.2
2017-09-11T13:26:05.630Z,21.2
2017-09-11T13:28:05.245Z,21.2
2017-09-11T13:30:04.816Z,21.2
2017-09-11T13:32:05.367Z,21.2
2017-09-11T13:34:07.634Z,21.2
2017-09-11T13:36:05.034Z,21.2
2017-09-11T13:38:05.961Z,21.2
2017-09-11T13:40:05.316Z,21.2
2017-09-11T13:42:05.179Z,21.2
2017-09-11T13:44:04.903Z,21.2
2017-09-11T13:46:05.103Z,21.2
2017-09-11T13:48:05.166Z,21.2
2017-09-11T13:50:05.094Z,21.2
2017-09-11T13:52:04.802Z,21.2
2017-09-11T13:54:05.760Z,21.1
2017-09-11T13:56:04.934Z,21.1
2017-09-11T13:58:07.139Z,21.1
2017-09-11T14:00:04.981Z,21.1
2017-09-11T14:02:04.863Z,21.2
2017-09-11T14:04:08.231Z,21.1
2017-09-11T14:06:04.995Z,21.1
2017-09-11T14:08:07.450Z,21.1
2017-09-11T14:10:08.130Z,21.1
2017-09-11T14:12:04.981Z,21.1
2017-09-11T14:14:04.720Z,21.1
2017-09-11T14:16:05.517Z,21.1
2017-09-11T14:18:05.177Z,21.1
2017-09-11T14:20:04.970Z,21.1
2017-09-11T14:22:04.734Z,21.1
2017-09-11T14:24:05.496Z,21.1
2017-09-11T14:26:05.231Z,21.1
2017-09-11T14:28:07.723Z,21.1
2017-09-11T14:30:05.211Z,21.1
2017-09-11T14:32:07.449Z,21.1
2017-09-11T14:34:09.848Z,21.1
2017-09-11T14:36:13.395Z,21.1
2017-09-11T14:38:05.184Z,21.1
2017-09-11T14:40:07.390Z,21.1
2017-09-11T14:42:07.744Z,21.1
2017-09-11T14:44:05.034Z,21.1
2017-09-11T14:46:05.264Z,21.1
2017-09-11T14:48:07.846Z,21.1
2017-09-11T14:50:05.539Z,21.1
2017-09-11T14:52:07.484Z,21.1
2017-09-11T14:54:10.596Z,21.1
2017-09-11T14:56:04.796Z,21.1
2017-09-11T14:58:05.490Z,21.1
2017-09-11T15:00:05.348Z,21.1
2017-09-11T15:02:07.591Z,21.1
2017-09-11T15:04:05.070Z,21.1
2017-09-11T15:06:04.902Z,21.1
2017-09-11T15:08:05.733Z,21.1
2017-09-11T15:10:05.443Z,21.1
2017-09-11T15:12:05.178Z,21.1
2017-09-11T15:14:04.939Z,21.1
2017-09-11T15:16:04.649Z,21
2017-09-11T15:18:05.554Z,21.1
2017-09-11T15:20:05.297Z,21.1
2017-09-11T15:22:05.062Z,21.1
2017-09-11T15:24:04.787Z,21.1
2017-09-11T15:26:04.997Z,21.1
2017-09-11T15:28:07.273Z,21.1
2017-09-11T15:30:04.992Z,21
2017-09-11T15:32:04.706Z,21
2017-09-11T15:34:05.676Z,21
2017-09-11T15:36:05.384Z,21
2017-09-11T15:38:08.125Z,21
2017-09-11T15:40:07.363Z,21
2017-09-11T15:42:05.278Z,21
2017-09-11T15:44:04.932Z,21
2017-09-11T15:46:07.273Z,21
2017-09-11T15:48:07.936Z,21
2017-09-11T15:50:04.634Z,21
2017-09-11T15:52:07.393Z,21
2017-09-11T15:54:04.651Z,21
2017-09-11T15:56:10.372Z,21
2017-09-11T15:58:13.183Z,21
2017-09-11T16:00:07.489Z,21
2017-09-11T16:02:05.198Z,21
2017-09-11T16:04:04.893Z,21
2017-09-11T16:06:05.466Z,21
2017-09-11T16:08:07.702Z,21
2017-09-11T16:10:10.104Z,21
2017-09-11T16:12:07.502Z,21
2017-09-11T16:14:12.887Z,21
2017-09-11T16:16:07.201Z,21
2017-09-11T16:18:04.970Z,21
2017-09-11T16:20:04.938Z,21
2017-09-11T16:22:04.636Z,21
2017-09-11T16:24:05.508Z,21
2017-09-11T16:26:05.627Z,21
2017-09-11T16:28:10.642Z,21
2017-09-11T16:30:05.699Z,21
2017-09-11T16:32:07.944Z,21
2017-09-11T16:34:04.645Z,21
2017-09-11T16:36:12.896Z,21
2017-09-11T16:38:05.708Z,21
2017-09-11T16:40:20.717Z,21
2017-09-11T16:42:11.833Z,21
2017-09-11T16:46:20.659Z,21
2017-09-11T16:48:07.658Z,21
2017-09-11T16:50:05.373Z,21
2017-09-11T16:52:15.435Z,21
2017-09-11T16:58:05.295Z,21
2017-09-11T17:00:06.216Z,21
2017-09-11T17:02:09.738Z,21
2017-09-11T17:04:06.673Z,21
2017-09-11T17:06:05.690Z,21
2017-09-11T17:08:05.524Z,21
2017-09-11T17:10:12.604Z,21
2017-09-11T17:12:06.263Z,21
2017-09-11T17:14:05.813Z,21
2017-09-11T17:16:07.862Z,21
2017-09-11T17:18:06.575Z,21
2017-09-11T17:20:05.588Z,21
2017-09-11T17:22:13.313Z,21
2017-09-11T17:24:08.164Z,21
2017-09-11T17:26:05.504Z,21
2017-09-11T17:28:06.247Z,21
2017-09-11T17:30:16.273Z,20.9
2017-09-11T17:32:05.440Z,21
2017-09-11T17:34:06.764Z,20.9
2017-09-11T17:36:22.737Z,21
2017-09-11T17:38:07.099Z,20.9
2017-09-11T17:40:05.346Z,20.9
2017-09-11T17:42:11.369Z,20.9
2017-09-11T17:50:11.712Z,20.9
2017-09-11T17:52:10.137Z,21
2017-09-11T17:54:09.189Z,20.9
2017-09-11T17:56:05.640Z,20.9
2017-09-11T17:58:06.876Z,20.9
2017-09-11T18:00:05.633Z,20.9
2017-09-11T18:02:06.304Z,20.9
2017-09-11T18:04:06.446Z,20.9
2017-09-11T18:06:04.812Z,20.9
2017-09-11T18:08:05.177Z,21
2017-09-11T18:10:07.464Z,20.9
2017-09-11T18:12:08.604Z,20.9
2017-09-11T18:14:07.666Z,21
2017-09-11T18:16:05.383Z,20.9
2017-09-11T18:18:05.160Z,21
2017-09-11T18:20:04.795Z,21
2017-09-11T18:22:07.522Z,21
2017-09-11T18:24:05.214Z,21
2017-09-11T18:26:07.556Z,21
2017-09-11T18:28:10.478Z,21
2017-09-11T18:30:04.728Z,20.9
2017-09-11T18:32:05.468Z,21
2017-09-11T18:34:04.964Z,21
2017-09-11T18:36:04.703Z,21
2017-09-11T18:38:11.491Z,21
2017-09-11T18:40:07.941Z,21
2017-09-11T18:42:04.641Z,21
2017-09-11T18:44:12.499Z,21
2017-09-11T18:46:05.370Z,21
2017-09-11T18:48:10.093Z,21
2017-09-11T18:50:05.520Z,21
2017-09-11T18:52:05.234Z,21
2017-09-11T18:54:05.237Z,21
2017-09-11T18:56:05.524Z,21
2017-09-11T18:58:05.322Z,21
2017-09-11T19:00:06.074Z,21
2017-09-11T19:02:04.785Z,21
2017-09-11T19:04:05.091Z,21
2017-09-11T19:06:07.342Z,21
2017-09-11T19:08:05.114Z,21
2017-09-11T19:10:07.726Z,21
2017-09-11T19:12:05.445Z,21
2017-09-11T19:14:05.140Z,21
2017-09-11T19:16:04.954Z,21
2017-09-11T19:18:05.354Z,21
2017-09-11T19:20:05.046Z,21
2017-09-11T19:22:05.509Z,21
2017-09-11T19:24:04.746Z,21
2017-09-11T19:26:05.609Z,21
2017-09-11T19:28:05.651Z,21
2017-09-11T19:30:05.421Z,20.9
2017-09-11T19:32:06.352Z,20.9
2017-09-11T19:34:05.297Z,20.9
2017-09-11T19:36:05.527Z,20.9
2017-09-11T19:38:05.971Z,20.9
2017-09-11T19:40:05.920Z,20.9
2017-09-11T19:42:10.901Z,20.9
2017-09-11T19:44:05.102Z,20.9
2017-09-11T19:46:07.856Z,20.9
2017-09-11T19:48:05.602Z,20.9
2017-09-11T19:50:05.356Z,20.9
2017-09-11T19:52:05.601Z,20.9
2017-09-11T19:54:05.510Z,20.9
2017-09-11T19:56:05.459Z,20.9
2017-09-11T19:58:05.558Z,20.9
2017-09-11T20:00:05.386Z,20.9
2017-09-11T20:02:05.352Z,20.9
2017-09-11T20:04:07.969Z,20.9
2017-09-11T20:06:05.714Z,20.9
2017-09-11T20:08:05.459Z,20.9
2017-09-11T20:10:05.579Z,20.9
2017-09-11T20:12:04.844Z,20.9
2017-09-11T20:14:05.375Z,20.9
2017-09-11T20:16:07.881Z,20.9
2017-09-11T20:18:05.316Z,20.9
2017-09-11T20:20:05.848Z,20.9
2017-09-11T20:22:13.164Z,20.9
2017-09-11T20:24:05.132Z,20.9
2017-09-11T20:26:06.802Z,20.9
2017-09-11T20:28:07.347Z,20.9
2017-09-11T20:30:07.838Z,20.9
2017-09-11T20:32:05.628Z,20.9
2017-09-11T20:34:05.528Z,20.9
2017-09-11T20:36:05.208Z,20.9
2017-09-11T20:38:07.449Z,20.9
2017-09-11T20:40:10.184Z,20.9
2017-09-11T20:42:04.893Z,20.9
2017-09-11T20:44:07.654Z,20.9
2017-09-11T20:46:05.476Z,20.8
2017-09-11T20:48:05.201Z,20.9
2017-09-11T20:50:04.886Z,20.9
2017-09-11T20:52:07.248Z,20.9
2017-09-11T20:54:05.567Z,20.8
2017-09-11T20:56:05.280Z,20.9
2017-09-11T20:58:05.652Z,20.9
2017-09-11T21:00:05.399Z,20.9
2017-09-11T21:02:05.184Z,20.9
2017-09-11T21:04:05.210Z,20.8
2017-09-11T21:06:04.912Z,20.9
2017-09-11T21:08:05.612Z,20.8
2017-09-11T21:10:05.589Z,20.9
2017-09-11T21:12:05.351Z,20.8
2017-09-11T21:14:05.149Z,20.8
2017-09-11T21:16:05.252Z,20.8
2017-09-11T21:18:07.728Z,20.8
2017-09-11T21:20:05.441Z,20.8
2017-09-11T21:22:05.187Z,20.8
2017-09-11T21:24:07.558Z,20.8
2017-09-11T21:26:05.266Z,20.8
2017-09-11T21:28:05.152Z,20.8
2017-09-11T21:30:04.950Z,20.8
2017-09-11T21:32:05.941Z,20.8
2017-09-11T21:34:22.360Z,20.8
2017-09-11T21:36:07.400Z,20.8
2017-09-11T21:38:05.472Z,20.8
2017-09-11T21:40:05.337Z,20.8
2017-09-11T21:42:05.463Z,20.8
2017-09-11T21:44:05.407Z,20.8
2017-09-11T21:46:10.571Z,20.8
2017-09-11T21:48:05.741Z,20.8
2017-09-11T21:50:07.202Z,20.8
2017-09-11T21:52:05.633Z,20.8
2017-09-11T21:54:05.413Z,20.8
2017-09-11T21:56:05.494Z,20.8
2017-09-11T21:58:04.962Z,20.7
2017-09-11T22:00:07.673Z,20.8
2017-09-11T22:02:07.407Z,20.8
2017-09-11T22:04:05.216Z,20.8
2017-09-11T22:06:05.081Z,20.8
2017-09-11T22:08:04.765Z,20.7
2017-09-11T22:10:08.165Z,20.8
2017-09-11T22:12:04.894Z,20.7
2017-09-11T22:14:05.555Z,20.8
2017-09-11T22:16:05.423Z,20.7
2017-09-11T22:18:05.398Z,20.7
2017-09-11T22:20:07.648Z,20.7
2017-09-11T22:22:05.606Z,20.7
2017-09-11T22:24:07.414Z,20.7
2017-09-11T22:26:05.185Z,20.7
2017-09-11T22:28:04.929Z,20.7
2017-09-11T22:30:05.683Z,20.7
2017-09-11T22:32:05.427Z,20.7
2017-09-11T22:34:07.830Z,20.7
2017-09-11T22:36:05.146Z,20.7
2017-09-11T22:38:05.056Z,20.7
2017-09-11T22:40:04.915Z,20.7
2017-09-11T22:42:05.281Z,20.7
2017-09-11T22:44:04.961Z,20.7
2017-09-11T22:46:04.636Z,20.7
2017-09-11T22:48:05.364Z,20.7
2017-09-11T22:50:05.165Z,20.7
2017-09-11T22:52:05.032Z,20.8
2017-09-11T22:54:07.929Z,20.7
2017-09-11T22:56:05.428Z,20.7
2017-09-11T22:58:10.215Z,20.7
2017-09-11T23:00:04.915Z,20.7
2017-09-11T23:02:04.656Z,20.7
2017-09-11T23:04:08.124Z,20.7
2017-09-11T23:06:07.415Z,20.7
2017-09-11T23:08:05.102Z,20.7
2017-09-11T23:10:07.695Z,20.7
2017-09-11T23:12:04.908Z,20.7
2017-09-11T23:14:07.607Z,20.7
2017-09-11T23:16:05.290Z,20.7
2017-09-11T23:18:05.299Z,20.7
2017-09-11T23:20:04.982Z,20.7
2017-09-11T23:22:05.452Z,20.7
2017-09-11T23:24:04.664Z,20.7
2017-09-11T23:26:05.563Z,20.7
2017-09-11T23:28:08.004Z,20.7
2017-09-11T23:30:04.719Z,20.7
2017-09-11T23:32:08.029Z,20.7
2017-09-11T23:34:07.275Z,20.7
2017-09-11T23:36:07.569Z,20.7
2017-09-11T23:38:05.332Z,20.7
2017-09-11T23:40:08.125Z,20.7
2017-09-11T23:42:04.960Z,20.7
2017-09-11T23:44:04.674Z,20.7
2017-09-11T23:46:07.919Z,20.7
2017-09-11T23:48:04.673Z,20.7
2017-09-11T23:50:05.345Z,20.7
2017-09-11T23:52:05.060Z,20.7
2017-09-11T23:54:05.039Z,20.7
2017-09-11T23:56:07.246Z,20.7
2017-09-11T23:58:05.290Z,20.7
